Time;durP1;ratioP1;P1;durP2;ratioP2;P2;SDS_P1;SDS_P2;PMS_P1;PMS_P2;Temp;Humidity;BMP_temperature;BMP_pressure;BME280_temperature;BME280_humidity;BME280_pressure;Samples;Min_cycle;Max_cycle;Signal;HPM_P1;HPM_P2
2022/07/19 00:00:49;;;;;;;0.40;0.40;;;18.40;99.90;;;;;;5050794;28;20204;-71
2022/07/19 00:03:38;;;;;;;0.45;0.45;;;18.40;99.90;;;;;;5051539;28;20205;-72
2022/07/19 00:06:26;;;;;;;0.40;0.40;;;18.40;99.90;;;;;;5051097;28;20279;-73
2022/07/19 00:09:14;;;;;;;0.50;0.50;;;18.40;99.90;;;;;;5050692;28;20717;-74
2022/07/19 00:12:02;;;;;;;0.40;0.40;;;18.30;99.90;;;;;;5051411;28;20244;-72
2022/07/19 00:14:50;;;;;;;0.40;0.40;;;18.30;99.90;;;;;;5050595;28;20614;-74
2022/07/19 00:17:42;;;;;;;0.40;0.40;;;18.30;99.90;;;;;;5051607;28;20279;-75
2022/07/19 00:20:30;;;;;;;0.50;0.50;;;18.20;99.90;;;;;;5052660;28;20212;-76
2022/07/19 00:23:19;;;;;;;0.50;0.50;;;18.20;99.90;;;;;;5051452;28;20206;-74
2022/07/19 00:26:07;;;;;;;0.40;0.40;;;18.10;99.90;;;;;;5053099;28;20193;-75
2022/07/19 00:28:56;;;;;;;0.40;0.40;;;18.10;99.90;;;;;;5050897;28;20290;-73
2022/07/19 00:31:44;;;;;;;0.40;0.40;;;18.10;99.90;;;;;;5051297;28;20201;-76
2022/07/19 00:34:34;;;;;;;0.40;0.40;;;18.00;99.90;;;;;;5050881;28;20617;-72
2022/07/19 00:37:22;;;;;;;0.40;0.40;;;18.00;99.90;;;;;;5051780;28;20217;-76
2022/07/19 00:40:11;;;;;;;0.40;0.40;;;18.00;99.90;;;;;;5049699;28;20229;-75
2022/07/19 00:42:59;;;;;;;0.50;0.50;;;17.90;99.90;;;;;;5053602;28;20512;-74
2022/07/19 00:45:47;;;;;;;0.40;0.40;;;17.90;99.90;;;;;;5060440;28;20384;-74
2022/07/19 00:48:36;;;;;;;0.40;0.40;;;17.90;99.90;;;;;;5055368;28;20278;-74
2022/07/19 00:51:26;;;;;;;0.40;0.40;;;17.80;99.90;;;;;;5056580;28;20204;-74
2022/07/19 00:54:15;;;;;;;0.40;0.40;;;17.80;99.90;;;;;;5055027;28;20205;-75
2022/07/19 00:57:04;;;;;;;0.40;0.40;;;17.80;99.90;;;;;;5053997;28;20631;-71
2022/07/19 00:59:54;;;;;;;0.40;0.40;;;17.70;99.90;;;;;;5053748;28;20229;-76
2022/07/19 01:02:43;;;;;;;0.40;0.40;;;17.70;99.90;;;;;;5055897;28;20292;-73
2022/07/19 01:05:31;;;;;;;0.40;0.40;;;17.70;99.90;;;;;;5056695;28;20674;-75
2022/07/19 01:08:20;;;;;;;0.40;0.40;;;17.70;99.90;;;;;;5055113;28;20220;-75
2022/07/19 01:11:08;;;;;;;0.40;0.40;;;17.60;99.90;;;;;;5056276;28;20320;-74
2022/07/19 01:13:56;;;;;;;0.40;0.40;;;17.60;99.90;;;;;;5055340;28;20208;-74
2022/07/19 01:16:45;;;;;;;0.50;0.50;;;17.50;99.90;;;;;;5054744;28;20212;-74
2022/07/19 01:19:34;;;;;;;0.50;0.50;;;17.50;99.90;;;;;;5055601;28;20217;-72
2022/07/19 01:22:23;;;;;;;0.50;0.50;;;17.50;99.90;;;;;;5054358;28;20204;-73
2022/07/19 01:25:12;;;;;;;0.40;0.40;;;17.50;99.90;;;;;;5056266;28;20198;-76
2022/07/19 01:28:00;;;;;;;0.50;0.50;;;17.40;99.90;;;;;;5054564;28;20686;-73
2022/07/19 01:30:48;;;;;;;0.50;0.50;;;17.40;99.90;;;;;;5053141;28;20201;-72
2022/07/19 01:33:40;;;;;;;0.40;0.40;;;17.40;99.90;;;;;;5054466;28;20677;-71
2022/07/19 01:36:28;;;;;;;0.40;0.40;;;17.40;99.90;;;;;;5054942;28;20204;-73
2022/07/19 01:39:18;;;;;;;0.50;0.50;;;17.30;99.90;;;;;;5055572;28;20241;-75
2022/07/19 01:42:06;;;;;;;0.40;0.40;;;17.30;99.90;;;;;;5054678;28;20202;-72
2022/07/19 01:44:54;;;;;;;0.50;0.50;;;17.20;99.90;;;;;;5053448;28;20193;-73
2022/07/19 01:47:43;;;;;;;0.50;0.50;;;17.20;99.90;;;;;;5054218;28;20688;-73
2022/07/19 01:50:31;;;;;;;0.45;0.45;;;17.20;99.90;;;;;;5055257;28;20212;-73
2022/07/19 01:53:19;;;;;;;0.43;0.43;;;17.20;99.90;;;;;;5054658;28;20622;-73
2022/07/19 01:56:08;;;;;;;0.50;0.50;;;17.10;99.90;;;;;;5049361;28;20205;-73
2022/07/19 01:58:56;;;;;;;0.47;0.47;;;17.10;99.90;;;;;;5051778;28;20217;-74
2022/07/19 02:01:44;;;;;;;0.50;0.50;;;17.00;99.90;;;;;;5053597;28;20202;-72
2022/07/19 02:04:33;;;;;;;0.50;0.50;;;17.00;99.90;;;;;;5053220;28;20208;-74
2022/07/19 02:07:22;;;;;;;0.50;0.50;;;17.00;99.90;;;;;;5053886;28;20201;-76
2022/07/19 02:10:10;;;;;;;0.45;0.45;;;17.00;99.90;;;;;;5052780;28;20883;-74
2022/07/19 02:13:00;;;;;;;0.40;0.40;;;17.10;99.90;;;;;;5054058;28;20201;-74
2022/07/19 02:15:48;;;;;;;0.40;0.40;;;17.00;99.90;;;;;;5052877;28;20194;-73
2022/07/19 02:18:36;;;;;;;0.50;0.50;;;16.90;99.90;;;;;;5052598;28;20224;-74
2022/07/19 02:21:24;;;;;;;0.40;0.40;;;16.90;99.90;;;;;;5053346;28;20248;-71
2022/07/19 02:24:12;;;;;;;0.40;0.40;;;16.90;99.90;;;;;;5053490;28;20201;-71
2022/07/19 02:27:01;;;;;;;0.40;0.40;;;16.90;99.90;;;;;;5053855;28;20213;-72
2022/07/19 02:29:50;;;;;;;0.40;0.40;;;16.80;99.90;;;;;;5055587;28;20237;-72
2022/07/19 02:32:38;;;;;;;0.40;0.40;;;16.80;99.90;;;;;;5036646;28;20205;-72
2022/07/19 02:35:26;;;;;;;0.40;0.40;;;16.80;99.90;;;;;;5033002;28;20578;-72
2022/07/19 02:38:14;;;;;;;0.50;0.50;;;16.70;99.90;;;;;;5032491;28;20221;-72
2022/07/19 02:41:03;;;;;;;0.43;0.43;;;16.70;99.90;;;;;;5032498;28;20193;-74
2022/07/19 02:43:51;;;;;;;0.50;0.50;;;16.60;99.90;;;;;;5033061;28;20256;-71
2022/07/19 02:46:40;;;;;;;0.40;0.40;;;16.60;99.90;;;;;;5032451;28;20205;-74
2022/07/19 02:49:28;;;;;;;0.50;0.50;;;16.60;99.90;;;;;;5032617;28;20214;-71
2022/07/19 02:52:16;;;;;;;0.50;0.50;;;16.50;99.90;;;;;;5033225;28;20210;-72
2022/07/19 02:55:06;;;;;;;0.43;0.43;;;16.50;99.90;;;;;;5032394;28;20201;-71
2022/07/19 02:57:54;;;;;;;0.40;0.40;;;16.50;99.90;;;;;;5033573;28;20205;-72
2022/07/19 03:00:43;;;;;;;0.40;0.40;;;16.40;99.90;;;;;;5032706;28;20202;-70
2022/07/19 03:03:46;;;;;;;0.50;0.50;;;16.50;99.90;;;;;;5033321;28;20593;-70
2022/07/19 03:06:35;;;;;;;0.50;0.50;;;16.40;99.90;;;;;;5031534;28;20197;-71
2022/07/19 03:09:23;;;;;;;0.50;0.50;;;16.50;99.90;;;;;;5032661;28;20319;-71
2022/07/19 03:12:11;;;;;;;0.40;0.40;;;16.40;99.90;;;;;;5032186;28;20210;-71
2022/07/19 03:14:59;;;;;;;0.40;0.40;;;16.40;99.90;;;;;;5033143;28;20202;-70
2022/07/19 03:17:47;;;;;;;0.50;0.50;;;16.40;99.90;;;;;;5032381;28;20222;-72
2022/07/19 03:20:37;;;;;;;0.50;0.50;;;16.40;99.90;;;;;;5032116;28;20198;-71
2022/07/19 03:23:26;;;;;;;0.40;0.40;;;16.40;99.90;;;;;;5033053;28;20584;-71
2022/07/19 03:26:14;;;;;;;0.40;0.40;;;16.40;99.90;;;;;;5031988;28;20205;-71
2022/07/19 03:29:03;;;;;;;0.40;0.40;;;16.40;99.90;;;;;;5032677;28;20222;-73
2022/07/19 03:31:51;;;;;;;0.40;0.40;;;16.30;99.90;;;;;;5032684;28;20213;-71
2022/07/19 03:34:40;;;;;;;0.50;0.50;;;16.40;99.90;;;;;;5033355;28;20198;-71
2022/07/19 03:37:29;;;;;;;0.40;0.40;;;16.30;99.90;;;;;;5032232;28;20202;-70
2022/07/19 03:40:17;;;;;;;0.50;0.50;;;16.30;99.90;;;;;;5031960;28;20197;-71
2022/07/19 03:43:06;;;;;;;0.40;0.40;;;16.30;99.90;;;;;;5032482;28;20213;-72
2022/07/19 03:45:54;;;;;;;0.45;0.45;;;16.30;99.90;;;;;;5032645;28;20263;-71
2022/07/19 03:48:42;;;;;;;0.50;0.50;;;16.30;99.90;;;;;;5032608;28;20269;-71
2022/07/19 03:51:30;;;;;;;0.40;0.40;;;16.40;99.90;;;;;;5045451;28;20205;-70
2022/07/19 03:54:20;;;;;;;0.50;0.50;;;16.40;99.90;;;;;;5051578;28;20596;-71
2022/07/19 03:57:08;;;;;;;0.50;0.50;;;16.40;99.90;;;;;;5052466;28;20193;-71
2022/07/19 03:59:56;;;;;;;0.40;0.40;;;16.40;99.90;;;;;;5054139;28;20635;-73
2022/07/19 04:02:44;;;;;;;0.50;0.50;;;16.50;99.90;;;;;;5052667;28;20780;-71
2022/07/19 04:05:33;;;;;;;0.40;0.40;;;16.60;99.90;;;;;;5052351;28;20669;-71
2022/07/19 04:08:21;;;;;;;0.50;0.50;;;16.50;99.90;;;;;;5051823;28;20217;-74
2022/07/19 04:11:10;;;;;;;0.40;0.40;;;16.50;99.90;;;;;;5051663;28;20205;-71
2022/07/19 04:13:59;;;;;;;0.50;0.50;;;16.50;99.90;;;;;;5053492;28;20208;-74
2022/07/19 04:16:47;;;;;;;0.50;0.50;;;16.60;99.90;;;;;;5051535;28;20204;-72
2022/07/19 04:19:36;;;;;;;0.40;0.40;;;16.60;99.90;;;;;;5064638;28;20225;-71
2022/07/19 04:22:24;;;;;;;0.40;0.40;;;16.60;99.90;;;;;;5051047;28;20241;-72
2022/07/19 04:25:13;;;;;;;0.40;0.40;;;16.70;99.90;;;;;;5053385;28;20205;-72
2022/07/19 04:28:04;;;;;;;0.40;0.40;;;16.80;99.90;;;;;;5050753;28;20201;-73
2022/07/19 04:30:52;;;;;;;0.40;0.40;;;16.80;99.90;;;;;;5050027;28;20216;-69
2022/07/19 04:33:40;;;;;;;0.40;0.40;;;16.80;99.90;;;;;;5050315;28;20472;-72
2022/07/19 04:36:28;;;;;;;0.40;0.40;;;16.90;99.90;;;;;;5051575;28;20212;-76
2022/07/19 04:39:16;;;;;;;0.50;0.50;;;17.00;99.90;;;;;;5051537;28;20228;-71
2022/07/19 04:42:04;;;;;;;0.40;0.40;;;16.90;99.90;;;;;;5051144;28;20205;-74
2022/07/19 04:44:54;;;;;;;0.40;0.40;;;17.00;99.90;;;;;;5053104;28;20740;-74
2022/07/19 04:47:42;;;;;;;0.40;0.40;;;17.00;99.90;;;;;;5051637;28;20562;-74
2022/07/19 04:50:30;;;;;;;0.50;0.50;;;17.10;99.90;;;;;;5051292;28;20573;-75
2022/07/19 04:53:18;;;;;;;0.50;0.50;;;17.20;99.90;;;;;;5051264;28;20205;-72
2022/07/19 04:56:06;;;;;;;0.50;0.50;;;17.30;99.90;;;;;;5051232;28;20667;-75
2022/07/19 04:58:55;;;;;;;0.43;0.43;;;17.30;99.90;;;;;;5050894;28;20229;-73
2022/07/19 05:01:44;;;;;;;0.50;0.50;;;17.30;99.90;;;;;;5050827;28;20256;-74
2022/07/19 05:04:39;;;;;;;0.50;0.50;;;17.50;99.90;;;;;;5051223;28;20197;-72
2022/07/19 05:07:27;;;;;;;0.50;0.50;;;17.50;99.90;;;;;;5051001;28;20206;-74
2022/07/19 05:10:16;;;;;;;0.40;0.40;;;17.60;99.90;;;;;;5049648;28;20198;-74
2022/07/19 05:13:04;;;;;;;0.40;0.40;;;17.70;99.90;;;;;;5051234;28;20690;-75
2022/07/19 05:15:52;;;;;;;0.40;0.40;;;17.70;99.90;;;;;;5052941;28;20224;-73
2022/07/19 05:18:42;;;;;;;0.40;0.40;;;17.80;99.90;;;;;;5050920;28;20721;-74
2022/07/19 05:21:30;;;;;;;0.47;0.47;;;17.90;99.90;;;;;;5050664;28;20205;-77
2022/07/19 05:24:18;;;;;;;0.40;0.40;;;18.00;99.90;;;;;;5053047;28;20201;-76
2022/07/19 05:27:06;;;;;;;0.40;0.40;;;18.10;99.90;;;;;;5051780;28;20202;-76
2022/07/19 05:29:54;;;;;;;0.43;0.43;;;18.10;99.90;;;;;;5052457;28;20606;-71
2022/07/19 05:32:43;;;;;;;0.40;0.40;;;18.20;99.90;;;;;;5055398;28;20205;-71
2022/07/19 05:35:32;;;;;;;0.40;0.40;;;18.30;99.90;;;;;;5056010;28;20202;-76
2022/07/19 05:38:20;;;;;;;2.28;2.20;;;18.40;99.90;;;;;;5054352;28;20229;-77
2022/07/19 05:41:10;;;;;;;0.40;0.40;;;18.70;99.90;;;;;;5054039;28;20323;-73
2022/07/19 05:43:58;;;;;;;0.40;0.40;;;18.70;99.90;;;;;;5056140;28;20205;-74
2022/07/19 05:46:46;;;;;;;0.40;0.40;;;18.70;99.90;;;;;;5054905;28;20574;-74
2022/07/19 05:49:35;;;;;;;0.40;0.40;;;18.90;99.90;;;;;;5054500;28;20228;-74
2022/07/19 05:52:24;;;;;;;0.40;0.40;;;19.00;99.90;;;;;;5054523;28;20205;-73
2022/07/19 05:55:14;;;;;;;0.40;0.40;;;19.10;99.90;;;;;;5054889;28;20197;-73
2022/07/19 05:58:02;;;;;;;0.40;0.40;;;19.20;99.90;;;;;;5054604;28;20208;-72
2022/07/19 06:03:58;;;;;;;0.50;0.50;;;19.40;99.90;;;;;;5051553;28;20212;-73
2022/07/19 06:06:46;;;;;;;0.40;0.40;;;19.60;99.90;;;;;;5055006;28;20205;-76
2022/07/19 06:09:36;;;;;;;0.40;0.40;;;19.70;99.90;;;;;;5057154;28;20210;-71
2022/07/19 06:12:24;;;;;;;0.40;0.40;;;19.80;99.90;;;;;;5053785;28;20201;-72
2022/07/19 06:15:12;;;;;;;0.50;0.50;;;19.90;99.90;;;;;;5051422;28;20220;-73
2022/07/19 06:18:01;;;;;;;0.50;0.50;;;19.90;99.90;;;;;;5041248;28;20202;-75
2022/07/19 06:20:54;;;;;;;0.40;0.40;;;20.00;99.90;;;;;;5049636;28;20275;-76
2022/07/19 06:23:42;;;;;;;0.50;0.50;;;20.20;99.90;;;;;;5055690;28;20251;-74
2022/07/19 06:26:32;;;;;;;0.40;0.40;;;20.20;99.90;;;;;;5052967;28;20205;-73
2022/07/19 06:29:20;;;;;;;0.50;0.50;;;20.40;99.90;;;;;;5053417;28;20225;-71
2022/07/19 06:32:08;;;;;;;0.40;0.40;;;20.50;99.90;;;;;;5052904;28;20645;-71
2022/07/19 06:34:56;;;;;;;0.40;0.40;;;20.60;99.90;;;;;;5052036;28;20205;-74
2022/07/19 06:37:45;;;;;;;0.40;0.40;;;20.70;99.90;;;;;;5053005;28;20204;-70
2022/07/19 06:40:33;;;;;;;0.40;0.40;;;20.80;99.90;;;;;;5052996;28;20224;-71
2022/07/19 06:43:22;;;;;;;0.40;0.40;;;20.90;99.90;;;;;;5052799;28;20555;-73
2022/07/19 06:46:11;;;;;;;0.40;0.40;;;21.00;99.90;;;;;;5052922;28;20205;-72
2022/07/19 06:48:59;;;;;;;0.45;0.45;;;21.30;99.90;;;;;;5052969;28;20237;-73
2022/07/19 06:51:47;;;;;;;0.68;0.68;;;21.30;99.90;;;;;;5051419;28;20212;-71
2022/07/19 06:54:35;;;;;;;0.40;0.40;;;21.60;99.90;;;;;;5053206;28;20259;-72
2022/07/19 06:57:23;;;;;;;0.40;0.40;;;21.70;99.90;;;;;;5047448;28;20189;-71
2022/07/19 07:00:14;;;;;;;0.60;0.60;;;21.80;99.90;;;;;;5059414;28;20263;-71
2022/07/19 07:03:03;;;;;;;0.40;0.40;;;22.00;99.90;;;;;;5067912;28;20200;-70
2022/07/19 07:05:51;;;;;;;0.50;0.50;;;22.20;99.90;;;;;;5052880;28;20274;-70
2022/07/19 07:08:39;;;;;;;0.40;0.40;;;22.30;99.90;;;;;;5053198;28;20213;-71
2022/07/19 07:11:28;;;;;;;0.47;0.47;;;22.40;99.90;;;;;;5050934;28;20285;-71
2022/07/19 07:14:16;;;;;;;0.40;0.40;;;22.60;99.90;;;;;;5052023;28;20209;-70
2022/07/19 07:17:06;;;;;;;0.50;0.50;;;22.70;99.90;;;;;;5053118;28;20202;-70
2022/07/19 07:19:54;;;;;;;0.40;0.40;;;22.90;99.90;;;;;;5052583;28;20222;-69
2022/07/19 07:22:42;;;;;;;0.40;0.40;;;23.00;99.90;;;;;;5052435;28;20201;-70
2022/07/19 07:25:31;;;;;;;0.40;0.40;;;23.20;99.90;;;;;;5052216;28;20201;-71
2022/07/19 07:28:19;;;;;;;0.40;0.40;;;23.30;99.90;;;;;;5052908;28;20236;-71
2022/07/19 07:31:13;;;;;;;0.40;0.40;;;23.40;99.90;;;;;;5052409;28;20193;-69
2022/07/19 07:34:03;;;;;;;2.38;2.25;;;23.50;99.90;;;;;;5053677;28;20678;-69
2022/07/19 07:36:52;;;;;;;0.40;0.40;;;23.60;99.90;;;;;;5053140;28;20202;-70
2022/07/19 07:39:40;;;;;;;0.40;0.40;;;23.60;99.90;;;;;;5035309;28;20264;-70
2022/07/19 07:42:30;;;;;;;0.52;0.52;;;23.70;99.90;;;;;;5050485;28;20698;-71
2022/07/19 07:45:19;;;;;;;0.40;0.40;;;23.80;99.60;;;;;;5040523;28;20193;-73
2022/07/19 07:48:07;;;;;;;0.40;0.40;;;23.80;99.50;;;;;;5053309;28;20627;-70
2022/07/19 07:50:57;;;;;;;0.40;0.40;;;24.00;98.40;;;;;;5033413;28;20194;-69
2022/07/19 07:54:05;;;;;;;0.40;0.40;;;24.20;98.30;;;;;;5033058;28;20241;-70
2022/07/19 07:56:53;;;;;;;0.40;0.40;;;24.30;98.40;;;;;;5032055;28;20206;-70
2022/07/19 07:59:42;;;;;;;0.50;0.50;;;24.30;97.90;;;;;;5044187;28;20721;-70
2022/07/19 08:02:31;;;;;;;0.40;0.40;;;24.60;97.50;;;;;;5041340;28;20212;-70
2022/07/19 08:05:22;;;;;;;0.40;0.40;;;24.50;97.50;;;;;;5032457;28;20202;-71
2022/07/19 08:08:11;;;;;;;0.40;0.40;;;24.60;97.30;;;;;;5031869;28;20225;-72
2022/07/19 08:11:00;;;;;;;0.40;0.40;;;24.60;97.10;;;;;;5032543;28;20230;-70
2022/07/19 08:13:48;;;;;;;0.40;0.40;;;24.70;96.80;;;;;;5031696;28;20194;-70
2022/07/19 08:16:36;;;;;;;0.40;0.40;;;24.80;96.30;;;;;;5048694;28;20215;-70
2022/07/19 08:19:25;;;;;;;0.40;0.40;;;24.90;96.20;;;;;;5052132;28;20229;-70
2022/07/19 08:22:15;;;;;;;0.40;0.40;;;25.00;95.80;;;;;;5052069;28;20705;-70
2022/07/19 08:25:06;;;;;;;0.40;0.40;;;25.00;95.90;;;;;;5052053;28;20552;-70
2022/07/19 08:27:54;;;;;;;0.40;0.40;;;25.00;95.80;;;;;;5052129;28;20204;-70
2022/07/19 08:30:42;;;;;;;0.40;0.40;;;25.10;95.10;;;;;;5051693;28;20189;-71
2022/07/19 08:33:51;;;;;;;0.40;0.40;;;25.30;95.20;;;;;;5052585;28;20681;-70
2022/07/19 08:36:39;;;;;;;0.40;0.40;;;25.40;94.80;;;;;;5052636;28;20561;-70
2022/07/19 08:39:27;;;;;;;0.40;0.40;;;25.40;95.00;;;;;;5032897;28;20237;-70
2022/07/19 08:42:20;;;;;;;0.50;0.50;;;25.50;94.60;;;;;;5032532;28;20225;-71
2022/07/19 08:45:10;;;;;;;0.40;0.40;;;25.70;94.30;;;;;;5051174;28;20212;-69
2022/07/19 08:47:59;;;;;;;0.40;0.40;;;25.70;93.90;;;;;;5051220;28;20204;-70
2022/07/19 08:50:48;;;;;;;0.40;0.40;;;25.80;93.80;;;;;;5050860;28;20688;-70
2022/07/19 08:53:40;;;;;;;0.40;0.40;;;25.90;93.90;;;;;;5049152;28;20606;-69
2022/07/19 08:59:35;;;;;;;0.40;0.40;;;26.20;93.60;;;;;;5056260;28;20227;-69
2022/07/19 09:02:24;;;;;;;0.40;0.40;;;26.30;93.30;;;;;;5071868;28;20800;-69
2022/07/19 09:05:12;;;;;;;0.40;0.40;;;26.40;93.00;;;;;;5073964;28;20683;-69
2022/07/19 09:08:04;;;;;;;0.50;0.50;;;26.30;92.50;;;;;;5075705;28;20205;-72
2022/07/19 09:14:04;;;;;;;0.40;0.40;;;26.50;92.00;;;;;;5055378;28;20200;-70
2022/07/19 09:17:03;;;;;;;0.40;0.40;;;26.50;91.90;;;;;;5055612;28;20284;-70
2022/07/19 09:19:57;;;;;;;0.40;0.40;;;26.50;91.80;;;;;;5053897;28;20705;-72
2022/07/19 09:22:55;;;;;;;0.43;0.43;;;26.60;91.50;;;;;;5053461;28;20233;-72
2022/07/19 09:25:45;;;;;;;0.40;0.40;;;26.60;90.60;;;;;;5064383;28;20208;-72
2022/07/19 09:28:35;;;;;;;0.40;0.40;;;26.70;90.00;;;;;;5057079;28;20213;-73
2022/07/19 09:31:23;;;;;;;0.40;0.40;;;26.90;89.00;;;;;;5034406;28;20580;-72
2022/07/19 09:34:13;;;;;;;0.40;0.40;;;27.10;88.30;;;;;;5033976;28;20285;-72
2022/07/19 09:37:17;;;;;;;0.40;0.40;;;27.00;87.70;;;;;;5034007;28;20224;-72
2022/07/19 09:40:07;;;;;;;0.40;0.40;;;27.10;87.60;;;;;;5033531;28;20226;-72
2022/07/19 09:42:55;;;;;;;0.40;0.40;;;27.20;86.30;;;;;;5052009;28;20232;-71
2022/07/19 09:45:44;;;;;;;0.40;0.40;;;27.40;86.30;;;;;;5054345;28;20606;-72
2022/07/19 09:48:43;;;;;;;0.50;0.50;;;27.40;86.50;;;;;;5047229;28;20229;-73
2022/07/19 09:51:35;;;;;;;0.40;0.40;;;27.60;85.30;;;;;;5057596;28;20200;-70
2022/07/19 09:54:25;;;;;;;0.40;0.40;;;27.60;83.00;;;;;;5060105;28;20235;-70
2022/07/19 09:57:14;;;;;;;0.40;0.40;;;27.70;81.90;;;;;;5060756;28;20202;-70
2022/07/19 10:00:05;;;;;;;0.60;0.60;;;27.80;81.30;;;;;;5030456;28;20599;-71
2022/07/19 10:02:54;;;;;;;0.40;0.40;;;27.90;81.20;;;;;;5053401;28;20233;-71
2022/07/19 10:05:43;;;;;;;0.50;0.50;;;28.00;80.60;;;;;;5060694;28;20193;-70
2022/07/19 10:08:32;;;;;;;0.40;0.40;;;28.20;79.70;;;;;;5059615;28;20229;-70
2022/07/19 10:11:21;;;;;;;0.40;0.40;;;28.20;78.80;;;;;;5053160;28;20193;-69
2022/07/19 10:14:11;;;;;;;0.40;0.40;;;28.30;78.50;;;;;;5053821;28;20625;-70
2022/07/19 10:17:09;;;;;;;0.40;0.40;;;28.40;78.20;;;;;;5058232;28;20670;-70
2022/07/19 10:19:58;;;;;;;0.40;0.40;;;28.40;77.10;;;;;;5062235;28;20225;-71
2022/07/19 10:22:46;;;;;;;0.40;0.40;;;28.50;75.90;;;;;;5032131;28;20229;-71
2022/07/19 10:25:45;;;;;;;0.40;0.40;;;28.60;75.90;;;;;;5035861;28;20227;-70
2022/07/19 10:28:35;;;;;;;0.40;0.40;;;28.70;74.70;;;;;;5050781;28;20225;-70
2022/07/19 10:32:01;;;;;;;0.40;0.40;;;28.80;73.60;;;;;;5043636;28;20194;-70
2022/07/19 10:34:51;;;;;;;0.40;0.40;;;28.80;73.80;;;;;;5049312;28;20202;-70
2022/07/19 10:37:43;;;;;;;0.40;0.40;;;28.90;72.20;;;;;;5053061;28;20201;-69
2022/07/19 10:40:41;;;;;;;0.50;0.50;;;29.00;72.40;;;;;;5052038;28;20197;-70
2022/07/19 10:43:31;;;;;;;0.40;0.40;;;29.10;71.60;;;;;;5046321;28;20217;-73
2022/07/19 10:46:31;;;;;;;0.40;0.40;;;29.10;71.30;;;;;;5061719;22;20224;-71
2022/07/19 10:49:43;;;;;;;0.40;0.40;;;29.20;72.40;;;;;;5053933;28;20743;-72
2022/07/19 10:52:35;;;;;;;0.40;0.40;;;29.20;70.90;;;;;;5054345;28;20193;-72
2022/07/19 10:55:28;;;;;;;0.40;0.40;;;29.30;71.10;;;;;;5052216;28;20709;-72
2022/07/19 10:58:16;;;;;;;0.40;0.40;;;29.30;70.30;;;;;;5054194;28;20202;-72
2022/07/19 11:01:18;;;;;;;0.40;0.40;;;29.50;69.50;;;;;;5053070;28;20205;-72
2022/07/19 11:04:25;;;;;;;0.40;0.40;;;29.60;68.90;;;;;;5053002;28;20650;-70
2022/07/19 11:07:22;;;;;;;0.40;0.40;;;29.70;67.70;;;;;;5053330;28;20193;-71
2022/07/19 11:10:11;;;;;;;0.40;0.40;;;29.80;65.00;;;;;;5054877;28;20590;-71
2022/07/19 11:12:59;;;;;;;0.40;0.40;;;29.90;64.40;;;;;;5045938;28;20205;-72
2022/07/19 11:15:55;;;;;;;1.67;1.58;;;30.00;62.20;;;;;;5056057;28;20217;-71
2022/07/19 11:18:45;;;;;;;0.40;0.40;;;30.20;61.70;;;;;;5058684;28;20201;-71
2022/07/19 11:21:37;;;;;;;0.40;0.40;;;30.30;62.00;;;;;;5055225;28;20208;-72
2022/07/19 11:24:25;;;;;;;0.40;0.40;;;30.30;62.70;;;;;;5053256;28;20205;-72
2022/07/19 11:27:14;;;;;;;0.40;0.40;;;30.30;62.80;;;;;;5054893;28;20197;-71
2022/07/19 11:30:06;;;;;;;0.40;0.40;;;30.40;64.80;;;;;;5054126;28;20198;-71
2022/07/19 11:32:57;;;;;;;0.40;0.40;;;30.40;63.50;;;;;;5053488;28;20208;-71
2022/07/19 11:35:57;;;;;;;0.40;0.40;;;30.50;64.30;;;;;;5053911;28;20227;-71
2022/07/19 11:38:49;;;;;;;0.40;0.40;;;30.60;62.10;;;;;;5053332;28;20251;-70
2022/07/19 11:41:38;;;;;;;0.40;0.40;;;30.70;61.30;;;;;;5053505;28;20583;-72
2022/07/19 11:44:26;;;;;;;0.40;0.40;;;30.80;61.40;;;;;;5054134;28;20577;-70
2022/07/19 11:47:14;;;;;;;0.40;0.40;;;30.80;61.10;;;;;;5056524;28;20216;-70
2022/07/19 11:50:06;;;;;;;0.40;0.40;;;30.80;60.70;;;;;;5075095;28;20196;-70
2022/07/19 11:52:57;;;;;;;0.40;0.40;;;30.80;60.40;;;;;;5075534;28;20200;-71
2022/07/19 11:55:46;;;;;;;0.40;0.40;;;30.80;62.00;;;;;;5086109;28;20250;-71
2022/07/19 11:58:35;;;;;;;0.40;0.40;;;30.90;59.20;;;;;;5076576;28;20247;-70
2022/07/19 12:01:25;;;;;;;0.40;0.40;;;31.00;59.60;;;;;;5078520;28;20212;-71
2022/07/19 12:04:15;;;;;;;0.40;0.40;;;31.20;59.00;;;;;;5064036;28;20192;-71
2022/07/19 12:07:04;;;;;;;0.40;0.40;;;31.30;59.30;;;;;;5073242;28;20201;-71
2022/07/19 12:09:53;;;;;;;0.40;0.40;;;31.50;59.00;;;;;;5072076;28;20673;-70
2022/07/19 12:12:42;;;;;;;0.40;0.40;;;31.60;58.80;;;;;;5053702;28;20196;-71
2022/07/19 12:15:47;;;;;;;0.40;0.40;;;31.60;58.30;;;;;;5060774;28;20213;-71
2022/07/19 12:18:47;;;;;;;0.52;0.52;;;31.70;57.90;;;;;;5060373;28;20197;-71
2022/07/19 12:21:41;;;;;;;0.40;0.40;;;31.80;55.40;;;;;;5058296;28;20193;-70
2022/07/19 12:24:30;;;;;;;0.40;0.40;;;31.90;56.10;;;;;;5059762;28;20198;-71
2022/07/19 12:27:22;;;;;;;0.40;0.40;;;32.00;57.90;;;;;;5059361;28;20201;-71
2022/07/19 12:30:19;;;;;;;0.40;0.40;;;32.20;58.00;;;;;;5062978;28;20209;-71
2022/07/19 12:33:09;;;;;;;0.40;0.40;;;32.30;57.70;;;;;;5059785;28;20196;-71
2022/07/19 12:35:58;;;;;;;0.47;0.47;;;32.30;56.90;;;;;;5058709;28;20714;-71
2022/07/19 12:38:46;;;;;;;0.40;0.40;;;32.30;55.60;;;;;;5062754;28;20212;-71
2022/07/19 12:41:35;;;;;;;0.40;0.40;;;32.30;55.60;;;;;;5063981;28;20196;-71
2022/07/19 12:44:25;;;;;;;0.40;0.40;;;32.50;55.90;;;;;;5065497;28;20216;-71
2022/07/19 12:47:13;;;;;;;0.40;0.40;;;32.80;56.30;;;;;;5060705;28;20201;-71
2022/07/19 12:50:23;;;;;;;0.40;0.40;;;33.60;54.20;;;;;;5067597;28;20230;-71
2022/07/19 12:53:13;;;;;;;0.40;0.40;;;35.80;52.80;;;;;;5054699;28;20692;-72
2022/07/19 12:56:02;;;;;;;0.40;0.40;;;38.30;50.40;;;;;;5064953;28;20561;-70
2022/07/19 13:01:57;;;;;;;0.40;0.40;;;42.50;43.70;;;;;;5064241;28;20193;-70
2022/07/19 13:04:46;;;;;;;0.50;0.50;;;44.20;41.20;;;;;;5061326;28;20205;-72
2022/07/19 13:07:34;;;;;;;0.40;0.40;;;45.90;39.30;;;;;;5063945;28;20197;-72
2022/07/19 13:10:23;;;;;;;0.50;0.50;;;46.50;35.50;;;;;;5062011;28;20200;-72
2022/07/19 13:13:11;;;;;;;0.50;0.50;;;46.50;34.70;;;;;;5058844;28;20193;-72
2022/07/19 13:15:59;;;;;;;0.50;0.50;;;47.10;33.20;;;;;;5062660;28;20218;-73
2022/07/19 13:18:49;;;;;;;1.70;1.67;;;46.90;33.50;;;;;;5069417;28;20224;-72
2022/07/19 13:21:38;;;;;;;1.45;1.45;;;46.90;32.40;;;;;;5074467;28;20204;-73
2022/07/19 13:24:26;;;;;;;0.70;0.70;;;47.10;32.70;;;;;;5074580;28;20227;-73
2022/07/19 13:27:34;;;;;;;0.60;0.60;;;47.80;31.30;;;;;;5073774;28;20233;-73
2022/07/19 13:30:23;;;;;;;0.50;0.50;;;47.60;30.90;;;;;;5073983;28;20199;-73
2022/07/19 13:33:11;;;;;;;0.60;0.60;;;47.70;31.20;;;;;;5074337;28;20212;-73
2022/07/19 13:36:01;;;;;;;0.98;0.93;;;48.50;30.80;;;;;;5073915;28;20602;-72
2022/07/19 13:38:49;;;;;;;0.60;0.60;;;49.70;30.20;;;;;;5074351;28;20618;-73
2022/07/19 13:41:39;;;;;;;2.33;2.22;;;49.30;29.40;;;;;;5074041;28;20207;-72
2022/07/19 13:44:27;;;;;;;0.70;0.70;;;49.60;29.30;;;;;;5074175;28;20632;-73
2022/07/19 13:47:15;;;;;;;0.70;0.70;;;50.40;29.60;;;;;;5074718;28;20201;-74
2022/07/19 13:50:04;;;;;;;0.73;0.73;;;51.10;28.60;;;;;;5073723;28;20193;-74
2022/07/19 13:52:53;;;;;;;0.80;0.80;;;51.60;28.40;;;;;;5056824;28;20202;-74
2022/07/19 13:55:41;;;;;;;0.70;0.70;;;51.80;28.50;;;;;;5053473;28;20705;-73
2022/07/19 13:58:30;;;;;;;0.80;0.80;;;51.40;28.90;;;;;;5051698;28;20209;-72
2022/07/19 14:01:18;;;;;;;0.90;0.90;;;52.30;28.50;;;;;;5052337;28;20197;-70
2022/07/19 14:04:26;;;;;;;0.98;0.98;;;52.90;27.70;;;;;;5061883;28;20296;-73
2022/07/19 14:07:14;;;;;;;1.00;1.00;;;53.00;28.00;;;;;;5061843;28;20200;-73
2022/07/19 14:10:05;;;;;;;1.85;1.75;;;53.20;27.50;;;;;;5061293;28;20194;-74
2022/07/19 14:12:53;;;;;;;0.95;0.95;;;53.00;26.70;;;;;;5062194;28;20197;-74
2022/07/19 14:16:01;;;;;;;1.65;1.55;;;52.90;27.40;;;;;;5055087;28;20282;-74
2022/07/19 14:18:50;;;;;;;1.17;1.17;;;52.90;26.20;;;;;;5053649;28;20247;-74
2022/07/19 14:21:38;;;;;;;0.80;0.80;;;51.40;26.40;;;;;;5052878;28;20201;-74
2022/07/19 14:24:26;;;;;;;0.98;0.98;;;51.70;26.80;;;;;;5053938;28;20641;-74
2022/07/19 14:27:16;;;;;;;1.35;1.25;;;51.40;26.40;;;;;;5053172;28;20286;-72
2022/07/19 14:30:05;;;;;;;0.70;0.70;;;50.60;26.60;;;;;;5051994;28;20206;-74
2022/07/19 14:32:54;;;;;;;0.70;0.70;;;49.90;26.90;;;;;;5051136;28;20208;-73
2022/07/19 14:35:42;;;;;;;0.70;0.70;;;50.00;26.80;;;;;;5051462;28;20704;-73
2022/07/19 14:38:30;;;;;;;0.82;0.82;;;50.20;27.00;;;;;;5051415;28;20268;-73
2022/07/19 14:41:18;;;;;;;0.80;0.80;;;51.20;26.90;;;;;;5063175;28;20204;-74
2022/07/19 14:44:08;;;;;;;0.80;0.80;;;52.20;26.60;;;;;;5070201;28;20213;-74
2022/07/19 14:46:56;;;;;;;0.75;0.75;;;51.10;26.10;;;;;;5061218;28;20205;-74
2022/07/19 14:49:44;;;;;;;0.90;0.90;;;50.20;26.40;;;;;;5057897;28;20198;-74
2022/07/19 14:52:32;;;;;;;0.80;0.80;;;51.10;27.00;;;;;;5059284;28;20205;-74
2022/07/19 14:55:20;;;;;;;0.82;0.82;;;52.20;26.60;;;;;;5062286;28;20205;-74
2022/07/19 14:58:09;;;;;;;0.90;0.90;;;53.10;26.60;;;;;;5058835;28;20201;-74